Time;durP1;ratioP1;P1;durP2;ratioP2;P2;SDS_P1;SDS_P2;PMS_P1;PMS_P2;Temp;Humidity;BMP_temperature;BMP_pressure;BME280_temperature;BME280_humidity;BME280_pressure;Samples;Min_cycle;Max_cycle;Signal;HPM_P1;HPM_P2
2023/09/09 06:56:25;;;;;;;14.40;12.27;;;18.60;99.90;;;;;;6241261;23;20179;-90
2023/09/09 06:58:52;;;;;;;14.15;12.75;;;18.70;99.90;;;;;;6219927;23;20179;-91
2023/09/09 07:01:18;;;;;;;14.52;12.40;;;18.80;99.90;;;;;;6220700;23;20540;-92
2023/09/09 07:03:45;;;;;;;13.38;12.07;;;18.90;99.90;;;;;;6247395;23;20173;-91
2023/09/09 07:06:13;;;;;;;14.52;13.02;;;19.00;99.90;;;;;;6220677;23;20801;-91
2023/09/09 07:11:43;;;;;;;14.00;12.70;;;19.30;99.90;;;;;;6244941;23;20173;-92
2023/09/09 07:14:10;;;;;;;14.65;13.13;;;19.40;99.90;;;;;;6246677;23;20254;-93
2023/09/09 07:16:37;;;;;;;15.63;13.23;;;19.50;99.90;;;;;;6245143;23;20179;-91
2023/09/09 07:19:04;;;;;;;13.90;12.70;;;19.50;99.90;;;;;;6219686;23;20177;-92
2023/09/09 07:21:30;;;;;;;14.98;13.57;;;19.70;99.90;;;;;;6246363;23;20176;-92
2023/09/09 07:26:40;;;;;;;12.77;11.48;;;19.90;99.90;;;;;;6223665;23;20169;-90
2023/09/09 07:29:08;;;;;;;12.55;11.23;;;20.00;99.90;;;;;;6246974;23;20165;-90
2023/09/09 07:31:35;;;;;;;12.13;11.13;;;20.10;99.90;;;;;;6202376;23;20170;-91
2023/09/09 07:42:38;;;;;;;13.43;12.23;;;20.60;99.90;;;;;;6248648;23;20607;-90
2023/09/09 07:45:19;;;;;;;15.50;13.70;;;20.90;99.90;;;;;;6244872;23;20557;-91
2023/09/09 07:47:47;;;;;;;12.88;11.40;;;21.00;99.90;;;;;;6191327;23;20565;-86
2023/09/09 07:50:14;;;;;;;15.85;13.45;;;21.10;99.90;;;;;;6243189;22;20184;-85
2023/09/09 07:52:40;;;;;;;16.92;13.77;;;21.20;99.90;;;;;;6243651;23;20182;-86
2023/09/09 07:55:10;;;;;;;13.38;12.00;;;21.20;99.90;;;;;;6250848;23;20659;-85
2023/09/09 07:57:37;;;;;;;13.25;11.65;;;21.30;99.90;;;;;;6213619;23;20173;-84
2023/09/09 08:00:07;;;;;;;14.27;12.73;;;21.40;99.90;;;;;;6243580;23;20471;-83
2023/09/09 08:02:35;;;;;;;12.90;11.70;;;21.50;99.90;;;;;;6242977;23;20208;-87
2023/09/09 08:05:02;;;;;;;13.25;12.05;;;21.60;99.90;;;;;;6243408;23;20177;-85
2023/09/09 08:07:29;;;;;;;14.88;12.77;;;21.70;99.90;;;;;;6216337;23;20581;-84
2023/09/09 08:09:56;;;;;;;13.48;11.82;;;21.80;99.90;;;;;;6243055;23;20173;-90
2023/09/09 08:12:26;;;;;;;12.98;11.18;;;21.90;99.90;;;;;;6247500;23;20179;-89
2023/09/09 08:17:45;;;;;;;42.03;37.13;;;22.10;99.90;;;;;;6244965;23;20172;-89
2023/09/09 08:20:12;;;;;;;28.13;25.35;;;22.20;99.90;;;;;;6243847;23;20178;-89
2023/09/09 08:22:39;;;;;;;15.10;13.70;;;22.20;99.90;;;;;;6244062;23;20176;-89
2023/09/09 08:25:06;;;;;;;13.20;11.90;;;22.40;99.80;;;;;;6212493;23;20174;-90
2023/09/09 08:27:35;;;;;;;13.27;11.98;;;22.50;99.50;;;;;;6243327;23;20628;-88
2023/09/09 08:30:02;;;;;;;12.70;11.50;;;22.60;99.00;;;;;;6216564;23;20669;-88
2023/09/09 08:32:29;;;;;;;11.75;10.65;;;22.80;98.30;;;;;;6242551;23;20173;-87
2023/09/09 08:34:56;;;;;;;11.63;10.52;;;23.00;97.90;;;;;;6244849;23;20662;-88
2023/09/09 08:37:23;;;;;;;10.90;9.90;;;23.00;97.80;;;;;;6218595;23;20616;-89
2023/09/09 08:39:55;;;;;;;11.18;10.18;;;23.20;97.50;;;;;;6246005;23;20175;-88
2023/09/09 08:42:31;;;;;;;12.35;11.00;;;23.20;97.60;;;;;;6246694;23;20158;-89
2023/09/09 08:45:06;;;;;;;13.43;11.95;;;23.30;97.60;;;;;;6222091;23;20180;-87
2023/09/09 08:47:37;;;;;;;14.65;13.00;;;23.40;97.50;;;;;;6246920;23;20165;-89
2023/09/09 08:50:05;;;;;;;16.45;14.82;;;23.50;97.70;;;;;;6246042;23;20161;-90
2023/09/09 08:52:32;;;;;;;11.93;10.82;;;23.80;96.00;;;;;;6194295;23;20531;-90
2023/09/09 08:54:59;;;;;;;16.50;14.80;;;23.90;96.00;;;;;;6244805;23;20188;-83
2023/09/09 08:57:28;;;;;;;12.57;11.38;;;24.30;95.30;;;;;;6242221;23;20173;-87
2023/09/09 08:59:57;;;;;;;9.85;8.90;;;24.40;94.30;;;;;;6242195;23;20201;-83
2023/09/09 09:02:26;;;;;;;10.98;9.98;;;24.70;94.80;;;;;;6243254;23;20635;-92
2023/09/09 09:04:54;;;;;;;10.82;9.30;;;26.10;90.20;;;;;;6244953;23;20173;-89
2023/09/09 09:07:21;;;;;;;10.05;8.95;;;27.80;63.00;;;;;;6247747;23;20177;-91
2023/09/09 09:09:48;;;;;;;9.85;8.93;;;29.00;46.50;;;;;;6245522;23;20207;-92
2023/09/09 09:12:15;;;;;;;10.57;9.68;;;30.10;35.90;;;;;;6215938;23;20616;-89
2023/09/09 09:14:49;;;;;;;9.40;8.70;;;31.10;28.30;;;;;;6242050;23;20673;-89
2023/09/09 09:17:17;;;;;;;10.65;9.77;;;32.20;23.00;;;;;;6241957;23;20179;-85
2023/09/09 09:19:45;;;;;;;9.73;8.82;;;32.60;20.30;;;;;;6241639;23;20235;-85
2023/09/09 09:22:21;;;;;;;10.70;9.80;;;33.50;18.40;;;;;;6239378;23;20522;-85
2023/09/09 09:24:48;;;;;;;11.15;10.25;;;34.10;16.60;;;;;;6240860;23;20619;-84
2023/09/09 09:27:16;;;;;;;11.43;9.38;;;33.70;17.10;;;;;;6240615;23;20235;-86
2023/09/09 09:29:45;;;;;;;9.82;8.95;;;33.80;18.50;;;;;;6211834;23;20641;-86
2023/09/09 09:32:12;;;;;;;9.68;8.93;;;33.90;17.00;;;;;;6240798;23;20634;-88
2023/09/09 09:34:39;;;;;;;10.18;9.32;;;34.20;14.80;;;;;;6242417;23;20204;-88
2023/09/09 09:37:12;;;;;;;10.80;9.68;;;33.60;15.70;;;;;;6243759;23;20654;-87
2023/09/09 09:39:39;;;;;;;11.35;10.40;;;33.10;16.30;;;;;;6242159;23;20172;-86
2023/09/09 09:42:06;;;;;;;9.50;8.73;;;32.80;17.20;;;;;;6242649;23;20642;-88
2023/09/09 09:44:33;;;;;;;10.73;9.68;;;33.30;17.30;;;;;;6243132;23;20173;-88
2023/09/09 09:47:03;;;;;;;11.40;10.40;;;34.20;15.10;;;;;;6217281;23;20488;-87
2023/09/09 09:49:34;;;;;;;39.03;35.60;;;35.10;12.40;;;;;;6242647;23;20183;-88
2023/09/09 09:52:02;;;;;;;11.68;10.77;;;34.30;13.80;;;;;;6243254;22;20215;-87
2023/09/09 09:54:32;;;;;;;11.35;10.40;;;33.30;16.20;;;;;;6242830;23;20202;-88
2023/09/09 09:57:01;;;;;;;11.60;10.70;;;32.50;17.90;;;;;;6243888;23;20181;-88
2023/09/09 09:59:31;;;;;;;11.13;9.93;;;33.20;18.20;;;;;;6242884;23;20203;-88
2023/09/09 10:01:59;;;;;;;13.00;10.55;;;33.70;14.70;;;;;;6243337;23;20219;-86
2023/09/09 10:04:28;;;;;;;11.13;10.13;;;32.20;17.70;;;;;;6241943;23;20207;-86
2023/09/09 10:06:57;;;;;;;11.35;10.35;;;31.60;18.70;;;;;;6243506;23;20172;-87
2023/09/09 10:09:34;;;;;;;10.75;9.85;;;31.20;19.80;;;;;;6243110;23;20172;-88
2023/09/09 10:12:06;;;;;;;9.23;8.40;;;31.00;22.10;;;;;;6242361;23;20749;-88
2023/09/09 10:14:35;;;;;;;11.45;10.18;;;31.70;20.60;;;;;;6242755;23;20647;-88
2023/09/09 10:17:06;;;;;;;12.20;11.10;;;33.10;16.80;;;;;;6244313;23;20169;-88
2023/09/09 10:19:35;;;;;;;10.23;9.32;;;34.00;14.60;;;;;;6245160;23;20231;-88
2023/09/09 10:22:06;;;;;;;11.90;10.80;;;33.30;16.60;;;;;;6246152;23;20389;-87
2023/09/09 10:24:35;;;;;;;10.35;9.52;;;34.20;13.50;;;;;;6245921;23;20609;-88
2023/09/09 10:27:04;;;;;;;10.73;9.77;;;35.00;12.50;;;;;;6246239;23;20211;-87
2023/09/09 10:29:31;;;;;;;10.57;9.68;;;34.40;12.90;;;;;;6246259;23;20202;-87
2023/09/09 10:32:02;;;;;;;10.55;9.45;;;35.10;12.10;;;;;;6245088;23;20175;-86
2023/09/09 10:34:31;;;;;;;11.70;10.60;;;35.10;12.50;;;;;;6245483;23;20172;-88
2023/09/09 10:37:00;;;;;;;11.73;10.60;;;34.30;13.90;;;;;;6245686;23;20231;-87
2023/09/09 10:39:28;;;;;;;12.35;11.23;;;33.50;15.90;;;;;;6244616;23;20176;-87
2023/09/09 10:41:57;;;;;;;12.35;11.13;;;32.60;17.80;;;;;;6245582;23;20259;-87
2023/09/09 10:44:26;;;;;;;11.85;10.75;;;31.70;17.50;;;;;;6244716;23;20179;-87
2023/09/09 10:46:56;;;;;;;11.55;10.60;;;30.90;19.80;;;;;;6244909;23;20618;-87
2023/09/09 10:49:27;;;;;;;12.13;10.95;;;30.50;22.40;;;;;;6245539;23;20247;-87
2023/09/09 10:51:55;;;;;;;11.52;10.32;;;30.50;25.10;;;;;;6244993;22;20192;-86
2023/09/09 10:54:23;;;;;;;11.80;10.80;;;30.60;26.50;;;;;;6242032;23;20215;-84
2023/09/09 10:56:52;;;;;;;11.65;10.50;;;31.30;23.50;;;;;;6244873;23;20184;-85
2023/09/09 10:59:21;;;;;;;10.93;9.85;;;30.80;26.50;;;;;;6244205;23;20175;-85
2023/09/09 11:01:49;;;;;;;11.60;10.60;;;30.50;23.90;;;;;;6245313;23;20175;-87
2023/09/09 11:04:21;;;;;;;11.63;10.43;;;30.90;23.00;;;;;;6244409;23;20176;-87
2023/09/09 11:07:07;;;;;;;11.32;10.43;;;30.60;21.60;;;;;;6245358;23;20173;-87
2023/09/09 11:09:34;;;;;;;11.15;10.05;;;30.50;23.20;;;;;;6215890;23;20175;-87
2023/09/09 11:12:12;;;;;;;12.63;11.25;;;30.70;22.20;;;;;;6215998;23;20176;-87
2023/09/09 11:14:44;;;;;;;11.70;10.57;;;30.70;21.40;;;;;;6243275;23;20161;-86
2023/09/09 11:17:11;;;;;;;11.27;10.38;;;29.90;23.30;;;;;;6244888;23;20248;-85
2023/09/09 11:19:42;;;;;;;12.18;10.60;;;29.90;26.40;;;;;;6243352;23;20173;-85
2023/09/09 11:22:11;;;;;;;12.48;11.27;;;30.00;27.60;;;;;;6243525;23;20188;-85
2023/09/09 11:24:39;;;;;;;12.10;11.00;;;29.90;23.80;;;;;;6242222;23;20176;-85
2023/09/09 11:27:10;;;;;;;12.30;11.15;;;29.70;24.70;;;;;;6244017;23;20168;-85
2023/09/09 11:29:37;;;;;;;13.10;11.73;;;29.50;26.10;;;;;;6241405;23;20173;-85
2023/09/09 11:32:10;;;;;;;11.45;10.40;;;29.20;27.80;;;;;;6244298;23;20173;-85
2023/09/09 11:34:36;;;;;;;12.18;10.98;;;29.20;29.50;;;;;;6242327;23;20467;-84
2023/09/09 11:37:05;;;;;;;13.73;10.57;;;29.40;27.80;;;;;;6244387;23;20169;-85
2023/09/09 11:39:39;;;;;;;12.23;11.02;;;29.40;30.40;;;;;;6243753;23;20252;-85
2023/09/09 11:42:06;;;;;;;12.40;10.63;;;29.40;30.30;;;;;;6244148;23;20160;-85
2023/09/09 11:44:39;;;;;;;12.63;11.27;;;29.40;28.20;;;;;;6216389;23;20212;-85
2023/09/09 11:47:08;;;;;;;13.57;10.27;;;29.30;27.20;;;;;;6243585;23;20219;-85
2023/09/09 11:49:37;;;;;;;11.70;10.60;;;29.20;29.60;;;;;;6217017;23;20177;-85
2023/09/09 11:52:05;;;;;;;11.93;10.70;;;29.20;28.10;;;;;;6242750;22;20193;-85
2023/09/09 11:54:32;;;;;;;11.00;10.07;;;29.10;28.70;;;;;;6243331;23;20463;-85
2023/09/09 11:57:05;;;;;;;10.40;9.40;;;29.10;30.80;;;;;;6243231;23;20208;-85
2023/09/09 11:59:32;;;;;;;12.13;10.55;;;29.30;27.60;;;;;;6241128;23;20172;-85
2023/09/09 12:01:59;;;;;;;12.38;10.40;;;29.30;29.00;;;;;;6243614;23;20169;-86
2023/09/09 12:04:27;;;;;;;11.77;10.65;;;29.10;27.00;;;;;;6216985;23;20691;-86
2023/09/09 12:06:54;;;;;;;11.13;9.65;;;29.10;26.20;;;;;;6244977;23;20172;-87
2023/09/09 12:09:22;;;;;;;10.88;9.88;;;29.00;27.00;;;;;;6216521;23;20723;-87
2023/09/09 12:11:49;;;;;;;11.75;10.75;;;29.00;27.00;;;;;;6243958;23;20256;-87
2023/09/09 12:14:16;;;;;;;11.00;10.00;;;28.90;26.50;;;;;;6241417;23;20175;-87
2023/09/09 12:16:46;;;;;;;13.30;12.07;;;28.80;26.40;;;;;;6242396;23;20515;-87
2023/09/09 12:19:16;;;;;;;12.00;10.80;;;28.50;27.20;;;;;;6244315;23;20247;-87
2023/09/09 12:21:48;;;;;;;10.25;9.35;;;28.60;27.60;;;;;;6241209;23;20188;-86
2023/09/09 12:24:15;;;;;;;23.10;13.40;;;28.70;28.00;;;;;;6242992;23;20177;-87
2023/09/09 12:26:52;;;;;;;13.65;9.50;;;28.90;27.60;;;;;;6242545;23;20195;-87
2023/09/09 12:29:19;;;;;;;12.80;10.32;;;29.00;27.00;;;;;;6244618;23;20227;-85
2023/09/09 12:31:56;;;;;;;11.60;9.90;;;28.90;26.90;;;;;;6244178;23;20635;-86
2023/09/09 12:34:24;;;;;;;11.75;10.65;;;29.10;25.70;;;;;;6240386;23;20641;-85
2023/09/09 12:36:57;;;;;;;9.95;8.82;;;28.90;26.70;;;;;;6241923;23;20203;-85
2023/09/09 12:39:25;;;;;;;10.63;9.57;;;29.00;27.00;;;;;;6215382;23;20607;-83
2023/09/09 12:41:59;;;;;;;11.02;9.98;;;29.10;26.40;;;;;;6216405;23;20173;-84
2023/09/09 12:44:26;;;;;;;12.65;10.18;;;29.00;26.10;;;;;;6216050;23;20172;-86
2023/09/09 12:46:56;;;;;;;10.18;9.30;;;28.90;26.70;;;;;;6242510;23;20510;-84
2023/09/09 12:49:23;;;;;;;10.75;9.75;;;29.00;26.50;;;;;;6242146;23;20786;-84
2023/09/09 12:51:50;;;;;;;9.27;8.48;;;29.00;25.00;;;;;;6240895;22;20193;-84
2023/09/09 12:54:19;;;;;;;11.02;10.13;;;29.00;26.50;;;;;;6241855;23;20987;-84
2023/09/09 12:56:45;;;;;;;11.63;10.43;;;28.70;26.00;;;;;;6216579;23;20577;-82
2023/09/09 12:59:12;;;;;;;11.30;9.70;;;28.70;26.80;;;;;;6242246;23;20172;-85
2023/09/09 13:01:39;;;;;;;10.88;9.77;;;28.70;26.20;;;;;;6244383;23;20596;-84
2023/09/09 13:04:06;;;;;;;11.52;9.40;;;28.80;26.90;;;;;;6219589;23;20184;-86
2023/09/09 13:06:33;;;;;;;9.90;9.00;;;28.90;27.00;;;;;;6245786;23;20169;-88
2023/09/09 13:09:00;;;;;;;10.60;9.35;;;28.70;26.80;;;;;;6244310;23;20168;-87
2023/09/09 13:11:29;;;;;;;9.35;8.15;;;28.70;26.80;;;;;;6244381;23;20173;-87
2023/09/09 13:13:56;;;;;;;9.45;8.55;;;28.50;27.70;;;;;;6216085;23;20179;-87
2023/09/09 13:16:23;;;;;;;9.63;8.73;;;28.40;27.80;;;;;;6242414;23;20643;-83
2023/09/09 13:18:51;;;;;;;9.55;8.65;;;28.30;27.10;;;;;;6243402;23;20275;-83
2023/09/09 13:21:17;;;;;;;10.20;9.30;;;28.30;29.00;;;;;;6241378;23;20173;-81
2023/09/09 13:23:44;;;;;;;10.15;8.35;;;28.40;28.60;;;;;;6243334;23;20173;-81
2023/09/09 13:26:11;;;;;;;8.73;7.93;;;28.40;27.40;;;;;;6242724;23;20173;-81
2023/09/09 13:28:39;;;;;;;11.30;9.35;;;28.40;28.30;;;;;;6243401;23;20168;-83
2023/09/09 13:31:07;;;;;;;10.00;8.93;;;28.40;27.90;;;;;;6243539;23;20176;-83
2023/09/09 13:33:34;;;;;;;9.90;8.90;;;28.40;28.00;;;;;;6242519;23;20177;-85
2023/09/09 13:36:01;;;;;;;9.70;8.80;;;28.30;28.70;;;;;;6242321;23;20192;-84
2023/09/09 13:38:28;;;;;;;9.55;8.75;;;28.40;26.70;;;;;;6241460;23;20487;-85
2023/09/09 13:40:55;;;;;;;8.77;7.88;;;28.50;26.00;;;;;;6243107;23;20168;-82
2023/09/09 13:43:22;;;;;;;11.00;8.65;;;28.40;26.70;;;;;;6240584;23;20794;-85
2023/09/09 13:45:54;;;;;;;9.13;8.18;;;28.50;28.00;;;;;;6242108;23;20173;-83
2023/09/09 13:48:21;;;;;;;9.27;8.48;;;28.40;25.60;;;;;;6242241;23;20175;-83
2023/09/09 13:50:48;;;;;;;9.32;8.18;;;28.30;26.50;;;;;;6241379;22;20206;-84
2023/09/09 13:53:15;;;;;;;10.52;8.55;;;28.20;28.10;;;;;;6241992;23;20186;-84
2023/09/09 13:55:41;;;;;;;8.90;8.10;;;28.10;26.40;;;;;;6242526;23;20218;-84
2023/09/09 13:58:08;;;;;;;8.82;7.93;;;28.20;26.40;;;;;;6242816;23;20176;-85
2023/09/09 14:00:35;;;;;;;8.70;7.90;;;28.00;26.40;;;;;;6244342;23;20176;-84
2023/09/09 14:03:04;;;;;;;9.00;8.13;;;28.00;26.40;;;;;;6243702;23;20177;-85
2023/09/09 14:05:31;;;;;;;8.90;8.10;;;27.90;26.30;;;;;;6244060;23;20180;-87
2023/09/09 14:07:58;;;;;;;8.25;7.55;;;27.70;26.10;;;;;;6243740;23;20173;-84
2023/09/09 14:10:25;;;;;;;9.07;7.55;;;27.60;27.10;;;;;;6244483;23;20183;-85
2023/09/09 14:12:52;;;;;;;8.07;7.35;;;27.60;26.70;;;;;;6243711;23;20177;-85
2023/09/09 14:15:19;;;;;;;8.73;7.93;;;27.70;25.60;;;;;;6242570;23;20168;-85
2023/09/09 14:17:47;;;;;;;8.85;7.82;;;27.80;27.90;;;;;;6244751;23;20197;-84
2023/09/09 14:20:16;;;;;;;8.63;7.68;;;27.60;27.10;;;;;;6218103;23;20184;-85
2023/09/09 14:22:43;;;;;;;10.65;8.50;;;27.60;26.10;;;;;;6243749;23;20183;-85
2023/09/09 14:25:10;;;;;;;9.13;7.78;;;27.50;27.20;;;;;;6244375;23;20169;-84
2023/09/09 14:27:37;;;;;;;8.73;7.82;;;27.50;27.40;;;;;;6243811;23;20181;-85
2023/09/09 14:30:05;;;;;;;7.90;7.03;;;27.50;29.00;;;;;;6245320;23;20173;-84
2023/09/09 14:32:31;;;;;;;10.07;7.72;;;27.60;27.50;;;;;;6244896;23;20172;-84
2023/09/09 14:34:58;;;;;;;7.63;7.03;;;27.50;29.30;;;;;;6241671;23;20173;-84
2023/09/09 14:37:28;;;;;;;8.60;7.70;;;27.70;26.90;;;;;;6218176;23;20189;-83
2023/09/09 14:39:55;;;;;;;7.82;7.13;;;27.70;26.20;;;;;;6241881;23;20176;-83
2023/09/09 14:42:21;;;;;;;8.70;7.82;;;27.70;26.40;;;;;;6244001;23;20197;-83
2023/09/09 14:44:48;;;;;;;9.88;7.85;;;27.70;25.50;;;;;;6216348;23;20176;-84
2023/09/09 14:47:16;;;;;;;8.15;7.45;;;27.70;26.70;;;;;;6242365;23;20179;-83
2023/09/09 14:49:43;;;;;;;8.00;7.30;;;27.60;26.10;;;;;;6242344;23;20467;-83
2023/09/09 14:52:12;;;;;;;11.93;7.63;;;27.70;26.10;;;;;;6242097;22;20192;-84
2023/09/09 14:54:40;;;;;;;7.75;7.05;;;27.60;25.40;;;;;;6216961;23;20244;-83
2023/09/09 14:57:07;;;;;;;8.27;7.47;;;27.60;26.10;;;;;;6243664;23;20192;-83
2023/09/09 14:59:35;;;;;;;7.93;7.20;;;27.60;25.10;;;;;;6243929;23;20173;-83
2023/09/09 15:02:02;;;;;;;8.20;7.45;;;27.50;25.80;;;;;;6243514;23;20173;-85
2023/09/09 15:04:29;;;;;;;8.02;7.32;;;27.50;24.80;;;;;;6243148;23;20195;-85
2023/09/09 15:06:56;;;;;;;9.18;7.05;;;27.50;25.40;;;;;;6241959;23;20234;-84
2023/09/09 15:09:23;;;;;;;7.75;7.05;;;27.40;24.90;;;;;;6244165;23;20183;-84
2023/09/09 15:11:51;;;;;;;8.70;6.78;;;27.40;24.20;;;;;;6245109;23;20169;-84
2023/09/09 15:14:19;;;;;;;10.25;7.28;;;27.40;24.50;;;;;;6218801;23;20169;-84
2023/09/09 15:16:46;;;;;;;7.90;7.18;;;27.30;25.80;;;;;;6246112;23;20258;-82
2023/09/09 15:19:13;;;;;;;7.63;6.93;;;27.20;25.80;;;;;;6219019;23;20173;-82
2023/09/09 15:21:40;;;;;;;9.02;7.20;;;27.20;25.80;;;;;;6244782;23;20650;-82
2023/09/09 15:24:08;;;;;;;7.40;6.72;;;27.10;25.80;;;;;;6218037;23;20182;-82
2023/09/09 15:26:35;;;;;;;7.32;6.72;;;27.10;25.80;;;;;;6194108;23;20195;-82
2023/09/09 15:29:04;;;;;;;8.02;7.22;;;27.00;26.00;;;;;;6244998;23;20179;-82
2023/09/09 15:31:31;;;;;;;7.63;6.93;;;27.10;24.70;;;;;;6193428;23;20176;-83
2023/09/09 15:33:59;;;;;;;8.18;7.00;;;27.00;25.70;;;;;;6244391;23;20169;-82
2023/09/09 15:36:26;;;;;;;8.50;7.38;;;27.00;26.40;;;;;;6244664;23;20572;-83
2023/09/09 15:38:53;;;;;;;7.70;7.00;;;26.90;26.70;;;;;;6218518;23;20173;-83
2023/09/09 15:41:22;;;;;;;9.30;6.93;;;26.90;27.90;;;;;;6245107;23;20491;-83
2023/09/09 15:43:50;;;;;;;7.53;6.70;;;26.90;27.10;;;;;;6218515;23;20169;-83
2023/09/09 15:46:21;;;;;;;7.63;6.93;;;26.90;27.00;;;;;;6245014;23;20443;-83
2023/09/09 15:48:48;;;;;;;7.07;6.40;;;26.80;27.00;;;;;;6244760;23;20464;-83
2023/09/09 15:51:15;;;;;;;7.47;6.78;;;26.80;27.50;;;;;;6244250;22;20189;-83
2023/09/09 15:53:42;;;;;;;7.53;6.82;;;26.70;27.40;;;;;;6244182;23;20227;-83
2023/09/09 15:56:12;;;;;;;8.68;6.82;;;26.60;28.10;;;;;;6244667;23;20559;-83
2023/09/09 15:58:39;;;;;;;8.48;7.45;;;26.60;28.20;;;;;;6218267;23;20509;-84
2023/09/09 16:01:07;;;;;;;9.23;7.90;;;26.60;29.00;;;;;;6244150;23;20190;-84
2023/09/09 16:03:35;;;;;;;7.70;7.03;;;26.50;29.70;;;;;;6217032;23;20184;-84
2023/09/09 16:06:04;;;;;;;7.28;6.68;;;26.60;29.30;;;;;;6242133;23;20173;-84
2023/09/09 16:08:32;;;;;;;8.55;7.63;;;26.40;29.60;;;;;;6242694;23;20175;-83
2023/09/09 16:11:05;;;;;;;8.00;7.18;;;26.40;29.60;;;;;;6244317;23;20169;-84
2023/09/09 16:13:33;;;;;;;8.52;7.70;;;26.30;30.70;;;;;;6242701;23;20215;-84
2023/09/09 16:16:03;;;;;;;7.72;7.03;;;26.20;30.60;;;;;;6243366;23;20169;-84
2023/09/09 16:18:31;;;;;;;8.40;7.60;;;26.20;30.90;;;;;;6240886;23;20283;-85
2023/09/09 16:20:59;;;;;;;7.68;6.90;;;26.10;31.10;;;;;;6243886;23;20173;-84
2023/09/09 16:23:26;;;;;;;7.95;7.15;;;26.00;31.80;;;;;;6217105;23;20188;-84
2023/09/09 16:25:53;;;;;;;8.65;6.70;;;26.00;32.30;;;;;;6244966;23;20177;-86
2023/09/09 16:28:21;;;;;;;7.55;6.85;;;25.90;31.90;;;;;;6217316;23;20533;-84
2023/09/09 16:30:47;;;;;;;8.00;7.30;;;25.90;32.10;;;;;;6238936;23;20183;-85
2023/09/09 16:33:14;;;;;;;9.05;7.47;;;25.80;32.80;;;;;;6240515;23;20177;-84
2023/09/09 16:35:42;;;;;;;7.85;7.05;;;25.80;33.20;;;;;;6242879;23;20176;-84
2023/09/09 16:38:11;;;;;;;7.25;6.65;;;25.70;33.40;;;;;;6244917;23;20212;-85
2023/09/09 16:40:38;;;;;;;7.70;7.00;;;25.70;33.70;;;;;;6245141;23;20177;-87
2023/09/09 16:43:06;;;;;;;7.10;6.50;;;25.60;34.30;;;;;;6217704;23;20247;-83
2023/09/09 16:45:33;;;;;;;8.43;7.20;;;25.60;35.30;;;;;;6243600;23;20183;-83
2023/09/09 16:48:03;;;;;;;7.97;7.05;;;25.50;36.50;;;;;;6245454;23;20173;-83
2023/09/09 16:50:30;;;;;;;7.60;6.80;;;25.40;36.40;;;;;;6244310;22;20283;-84
2023/09/09 16:52:57;;;;;;;9.27;7.43;;;25.30;36.40;;;;;;6243609;23;20181;-83
2023/09/09 16:55:26;;;;;;;9.48;7.75;;;25.30;36.40;;;;;;6243439;23;20169;-83
2023/09/09 16:57:52;;;;;;;8.13;7.32;;;25.20;36.40;;;;;;6243904;23;20416;-83
2023/09/09 17:00:20;;;;;;;11.27;7.70;;;25.20;38.00;;;;;;6243986;23;20192;-83
2023/09/09 17:02:46;;;;;;;9.68;7.88;;;25.10;38.40;;;;;;6244154;23;20173;-83
2023/09/09 17:05:13;;;;;;;11.63;7.38;;;25.00;39.30;;;;;;6243157;23;20623;-84
2023/09/09 17:07:40;;;;;;;10.82;7.90;;;25.00;40.30;;;;;;6243587;23;20182;-84
2023/09/09 17:10:08;;;;;;;8.45;7.53;;;24.90;41.00;;;;;;6244015;23;20177;-84
2023/09/09 17:12:37;;;;;;;7.93;7.10;;;24.90;41.90;;;;;;6217230;23;20230;-84
2023/09/09 17:15:04;;;;;;;11.05;7.35;;;24.80;42.50;;;;;;6241434;23;20181;-82
2023/09/09 17:17:31;;;;;;;9.10;7.13;;;24.70;43.80;;;;;;6216839;23;21001;-83
2023/09/09 17:19:58;;;;;;;7.55;6.85;;;24.70;44.50;;;;;;6244051;23;20201;-83
2023/09/09 17:22:25;;;;;;;8.60;7.10;;;24.60;45.70;;;;;;6215419;23;20180;-83
2023/09/09 17:24:55;;;;;;;9.00;7.80;;;24.50;48.80;;;;;;6241522;23;20173;-86
2023/09/09 17:27:22;;;;;;;7.93;7.15;;;24.40;51.90;;;;;;6243327;23;20204;-87
2023/09/09 17:29:53;;;;;;;7.80;7.13;;;24.20;54.80;;;;;;6242079;23;20276;-86
2023/09/09 17:32:21;;;;;;;7.90;6.82;;;24.10;59.60;;;;;;6243347;23;20162;-86
2023/09/09 17:34:48;;;;;;;9.25;7.72;;;24.00;61.30;;;;;;6243947;23;20173;-86
2023/09/09 17:37:15;;;;;;;9.63;7.57;;;23.90;67.40;;;;;;6243331;23;20193;-84
2023/09/09 17:39:41;;;;;;;9.25;7.85;;;23.80;70.80;;;;;;6214966;23;20231;-85
2023/09/09 17:42:08;;;;;;;8.95;7.28;;;23.70;73.20;;;;;;6243425;23;20180;-84
2023/09/09 17:44:36;;;;;;;10.38;7.50;;;23.60;75.20;;;;;;6216660;23;20179;-84
2023/09/09 17:47:05;;;;;;;8.23;7.43;;;23.50;76.50;;;;;;6243920;23;20209;-83
2023/09/09 17:49:32;;;;;;;8.73;7.70;;;23.50;77.20;;;;;;6243449;23;20176;-84
2023/09/09 17:52:01;;;;;;;80.25;52.10;;;23.40;78.60;;;;;;6243653;22;20247;-84
2023/09/09 17:54:29;;;;;;;64.32;43.75;;;23.30;79.80;;;;;;6212274;23;20181;-85
2023/09/09 17:56:56;;;;;;;17.85;13.23;;;23.30;80.10;;;;;;6185673;23;20193;-83
2023/09/09 17:59:23;;;;;;;23.08;16.77;;;23.20;80.90;;;;;;6213577;23;20192;-83
2023/09/09 18:01:50;;;;;;;18.08;12.73;;;23.20;81.60;;;;;;6213615;23;20209;-83
2023/09/09 18:04:18;;;;;;;11.52;9.98;;;23.10;83.20;;;;;;6213053;23;20178;-83
2023/09/09 18:06:47;;;;;;;22.98;16.63;;;23.00;82.90;;;;;;6211470;23;20561;-84
2023/09/09 18:09:14;;;;;;;56.00;39.25;;;23.00;82.90;;;;;;6211231;23;20568;-84
2023/09/09 18:11:42;;;;;;;125.72;112.38;;;22.90;84.60;;;;;;6210742;23;20567;-84
2023/09/09 18:14:09;;;;;;;201.27;170.85;;;22.90;85.50;;;;;;6210623;23;20255;-83
2023/09/09 18:16:36;;;;;;;227.85;204.93;;;22.90;86.80;;;;;;6212733;23;20315;-84
2023/09/09 18:19:02;;;;;;;124.68;106.28;;;22.80;87.50;;;;;;6212196;23;20194;-84
2023/09/09 18:21:31;;;;;;;82.65;56.72;;;22.70;88.10;;;;;;6211883;23;20176;-84
2023/09/09 18:23:58;;;;;;;61.08;44.45;;;22.70;88.50;;;;;;6210498;23;20177;-84
2023/09/09 18:26:25;;;;;;;35.03;26.20;;;22.70;89.90;;;;;;6210212;23;20206;-83
2023/09/09 18:28:51;;;;;;;46.53;34.92;;;22.60;89.50;;;;;;6211922;23;20568;-85
2023/09/09 18:31:19;;;;;;;32.17;22.92;;;22.60;89.70;;;;;;6185375;23;20236;-84
2023/09/09 18:33:46;;;;;;;10.88;9.60;;;22.50;89.60;;;;;;6211684;23;20629;-84
2023/09/09 18:36:13;;;;;;;9.13;8.07;;;22.50;89.80;;;;;;6211480;23;20182;-85
2023/09/09 18:38:42;;;;;;;8.85;8.05;;;22.40;90.10;;;;;;6213753;23;20190;-85
2023/09/09 18:41:09;;;;;;;9.73;8.70;;;22.30;90.30;;;;;;6212787;23;20178;-84
2023/09/09 18:43:37;;;;;;;10.05;8.63;;;22.20;90.40;;;;;;6187880;23;20253;-84
2023/09/09 18:46:05;;;;;;;10.75;8.18;;;22.20;90.90;;;;;;6214301;23;20265;-85
2023/09/09 18:48:32;;;;;;;9.45;8.48;;;22.10;90.90;;;;;;6214725;23;20178;-84
2023/09/09 18:51:01;;;;;;;9.57;8.63;;;22.10;91.00;;;;;;6213048;23;20219;-84
2023/09/09 18:53:30;;;;;;;10.57;9.27;;;22.00;91.20;;;;;;6211943;23;20178;-84
2023/09/09 18:56:11;;;;;;;11.57;9.65;;;21.90;91.40;;;;;;6209495;23;20162;-84
2023/09/09 18:58:38;;;;;;;10.32;9.30;;;21.90;91.60;;;;;;6185437;23;20209;-84
2023/09/09 19:01:05;;;;;;;10.57;9.00;;;21.90;91.80;;;;;;6211933;23;20174;-84
2023/09/09 19:03:32;;;;;;;11.10;9.60;;;21.80;92.00;;;;;;6186555;23;20180;-84
2023/09/09 19:05:58;;;;;;;10.32;9.23;;;21.90;92.30;;;;;;6211548;23;20180;-84
2023/09/09 19:08:26;;;;;;;12.23;10.68;;;21.90;92.60;;;;;;6211004;23;20174;-84
2023/09/09 19:10:53;;;;;;;10.95;9.93;;;21.80;92.80;;;;;;6212397;23;20176;-85
2023/09/09 19:13:22;;;;;;;11.10;10.00;;;21.70;93.00;;;;;;6210516;23;20173;-84
2023/09/09 19:15:50;;;;;;;12.40;10.95;;;21.60;93.00;;;;;;6211603;23;20174;-84
2023/09/09 19:18:20;;;;;;;15.52;10.73;;;21.60;93.00;;;;;;6210397;23;20194;-83
2023/09/09 19:20:46;;;;;;;12.98;11.55;;;21.60;93.40;;;;;;6213955;23;20507;-84
2023/09/09 19:23:13;;;;;;;13.82;11.23;;;21.50;93.60;;;;;;6213163;23;20410;-85
2023/09/09 19:25:40;;;;;;;13.05;11.85;;;21.50;93.80;;;;;;6212236;23;20205;-85
2023/09/09 19:28:08;;;;;;;13.30;11.90;;;21.40;94.10;;;;;;6211685;23;20180;-85
2023/09/09 19:30:36;;;;;;;14.05;12.00;;;21.40;94.30;;;;;;6213071;23;20174;-84
2023/09/09 19:33:04;;;;;;;15.18;12.20;;;21.30;94.40;;;;;;6213339;23;20600;-83
2023/09/09 19:35:31;;;;;;;14.57;11.65;;;21.40;94.30;;;;;;6212333;23;20166;-83
2023/09/09 19:38:14;;;;;;;20.40;17.40;;;21.40;94.40;;;;;;6212018;23;20281;-83
2023/09/09 19:40:41;;;;;;;17.88;13.30;;;21.50;94.10;;;;;;6210205;23;20184;-84
2023/09/09 19:43:08;;;;;;;13.63;12.23;;;21.50;93.90;;;;;;6212593;23;20200;-84
2023/09/09 19:45:40;;;;;;;17.95;14.38;;;21.40;94.10;;;;;;6213508;23;20180;-87
2023/09/09 19:48:08;;;;;;;16.27;14.40;;;21.30;94.50;;;;;;6212858;23;20208;-84
2023/09/09 19:50:37;;;;;;;14.48;12.98;;;21.10;94.90;;;;;;6213706;23;20664;-84
2023/09/09 19:53:04;;;;;;;15.02;13.52;;;21.00;95.10;;;;;;6213327;23;20213;-84